Time;durP1;ratioP1;P1;durP2;ratioP2;P2;SDS_P1;SDS_P2;PMS_P1;PMS_P2;Temp;Humidity;BMP_temperature;BMP_pressure;BME280_temperature;BME280_humidity;BME280_pressure;Samples;Min_cycle;Max_cycle;Signal;HPM_P1;HPM_P2
2024/02/15 00:00:15;;;;;;;65.15;36.75;;;11.30;99.90;;;;;;5060957;28;20055;-74
2024/02/15 00:02:41;;;;;;;77.78;39.20;;;11.30;99.90;;;;;;5048978;28;20492;-75
2024/02/15 00:05:08;;;;;;;86.45;38.70;;;11.30;99.90;;;;;;5066820;28;20151;-75
2024/02/15 00:07:35;;;;;;;60.83;36.55;;;11.30;99.90;;;;;;5049096;28;20437;-75
2024/02/15 00:10:00;;;;;;;73.22;39.47;;;11.30;99.90;;;;;;5052678;28;20063;-75
2024/02/15 00:12:26;;;;;;;75.60;38.67;;;11.40;99.90;;;;;;5048666;28;20392;-74
2024/02/15 00:14:52;;;;;;;72.60;39.72;;;11.30;99.90;;;;;;5062764;28;20118;-74
2024/02/15 00:17:18;;;;;;;61.15;37.22;;;11.30;99.90;;;;;;5063242;28;20075;-75
2024/02/15 00:19:43;;;;;;;81.70;41.00;;;11.30;99.90;;;;;;5050276;28;20032;-75
2024/02/15 00:22:09;;;;;;;78.57;40.60;;;11.30;99.90;;;;;;5067647;28;20412;-74
2024/02/15 00:24:37;;;;;;;79.82;40.22;;;11.30;99.90;;;;;;5079579;28;20039;-74
2024/02/15 00:27:04;;;;;;;121.63;43.17;;;11.30;99.90;;;;;;5048822;28;20122;-74
2024/02/15 00:29:31;;;;;;;96.82;41.65;;;11.30;99.90;;;;;;5065078;28;20097;-75
2024/02/15 00:31:57;;;;;;;112.43;43.72;;;11.30;99.90;;;;;;5050282;28;20066;-75
2024/02/15 00:34:26;;;;;;;78.68;37.85;;;11.30;99.90;;;;;;5058435;28;20039;-75
2024/02/15 00:36:51;;;;;;;96.78;40.08;;;11.30;99.90;;;;;;5060418;28;20040;-75
2024/02/15 00:39:18;;;;;;;66.47;35.30;;;11.30;99.90;;;;;;5063724;28;20054;-75
2024/02/15 00:41:45;;;;;;;68.60;35.17;;;11.30;99.90;;;;;;5044060;28;20036;-75
2024/02/15 00:44:11;;;;;;;79.10;37.00;;;11.30;99.90;;;;;;5048517;28;20032;-76
2024/02/15 00:46:37;;;;;;;73.53;34.28;;;11.30;99.90;;;;;;5061874;28;20044;-76
2024/02/15 00:49:07;;;;;;;54.70;31.23;;;11.30;99.90;;;;;;5048577;28;20177;-76
2024/02/15 00:51:33;;;;;;;66.53;34.63;;;11.30;99.90;;;;;;5043686;28;20641;-76
2024/02/15 00:54:03;;;;;;;75.28;34.40;;;11.30;99.90;;;;;;5047843;28;20051;-76
2024/02/15 00:56:32;;;;;;;75.93;34.87;;;11.30;99.90;;;;;;5062796;28;20048;-75
2024/02/15 00:59:03;;;;;;;65.60;31.40;;;11.30;99.90;;;;;;5064857;28;20508;-75
2024/02/15 01:01:29;;;;;;;75.22;32.85;;;11.30;99.90;;;;;;5047625;28;20306;-76
2024/02/15 01:03:58;;;;;;;76.40;32.10;;;11.30;99.90;;;;;;5063797;28;20096;-76
2024/02/15 01:06:24;;;;;;;67.80;30.73;;;11.30;99.90;;;;;;5051663;28;20040;-76
2024/02/15 01:08:52;;;;;;;63.40;28.80;;;11.30;99.90;;;;;;5077085;28;20031;-76
2024/02/15 01:11:18;;;;;;;52.58;27.98;;;11.30;99.90;;;;;;5074786;28;20175;-76
2024/02/15 01:13:44;;;;;;;55.45;27.20;;;11.30;99.90;;;;;;5065531;28;20144;-76
2024/02/15 01:16:10;;;;;;;55.33;26.92;;;11.30;99.90;;;;;;5050734;28;20048;-75
2024/02/15 01:18:36;;;;;;;47.80;24.52;;;11.30;99.90;;;;;;5074362;28;20490;-76
2024/02/15 01:21:02;;;;;;;49.03;25.65;;;11.30;99.90;;;;;;5075059;28;20036;-76
2024/02/15 01:23:28;;;;;;;46.08;25.65;;;11.30;99.90;;;;;;5055067;28;20325;-76
2024/02/15 01:25:53;;;;;;;50.90;25.75;;;11.30;99.90;;;;;;5046022;28;20493;-76
2024/02/15 01:28:19;;;;;;;43.90;24.77;;;11.30;99.90;;;;;;5052827;28;20073;-76
2024/02/15 01:30:45;;;;;;;45.83;25.13;;;11.30;99.90;;;;;;5046076;28;20653;-76
2024/02/15 01:33:11;;;;;;;47.38;25.33;;;11.40;99.90;;;;;;5049866;28;20500;-76
2024/02/15 01:35:38;;;;;;;43.05;23.83;;;11.30;99.90;;;;;;5066463;28;20048;-76
2024/02/15 01:38:05;;;;;;;57.75;27.20;;;11.30;99.90;;;;;;5045586;28;20051;-76
2024/02/15 01:40:31;;;;;;;52.70;26.95;;;11.30;99.90;;;;;;5053097;28;20048;-75
2024/02/15 01:42:58;;;;;;;56.13;29.17;;;11.30;99.90;;;;;;5057838;28;20055;-75
2024/02/15 01:45:25;;;;;;;52.33;28.30;;;11.30;99.90;;;;;;5053262;28;20408;-75
2024/02/15 01:47:52;;;;;;;53.05;27.27;;;11.40;99.90;;;;;;5062029;28;20097;-75
2024/02/15 01:50:19;;;;;;;72.90;31.83;;;11.30;99.90;;;;;;5052758;28;20046;-75
2024/02/15 01:52:47;;;;;;;58.80;29.50;;;11.30;99.90;;;;;;5051389;28;20050;-75
2024/02/15 01:55:15;;;;;;;64.25;32.20;;;11.30;99.90;;;;;;5055216;28;20604;-75
2024/02/15 01:57:45;;;;;;;57.97;29.05;;;11.30;99.90;;;;;;5054178;28;20040;-75
2024/02/15 02:00:12;;;;;;;;;;;11.30;99.90;;;;;;5054506;28;20052;-75
2024/02/15 02:02:41;;;;;;;51.10;26.60;;;11.30;99.90;;;;;;5049864;28;19963;-75
2024/02/15 02:05:07;;;;;;;59.05;28.75;;;11.30;99.90;;;;;;5050696;28;20067;-75
2024/02/15 02:07:33;;;;;;;54.40;27.75;;;11.30;99.90;;;;;;5059488;28;20039;-75
2024/02/15 02:10:00;;;;;;;47.40;27.05;;;11.40;99.90;;;;;;5048159;28;20044;-75
2024/02/15 02:12:27;;;;;;;50.50;26.50;;;11.40;99.90;;;;;;5048996;28;20048;-75
2024/02/15 02:14:56;;;;;;;56.42;27.42;;;11.40;99.90;;;;;;5049288;28;20040;-75
2024/02/15 02:17:22;;;;;;;51.00;25.35;;;11.40;99.90;;;;;;5045757;28;20048;-75
2024/02/15 02:19:50;;;;;;;48.78;24.35;;;11.40;99.90;;;;;;5068956;28;20067;-75
2024/02/15 02:22:17;;;;;;;49.78;25.50;;;11.40;99.90;;;;;;5062749;28;20052;-76
2024/02/15 02:25:08;;;;;;;41.33;22.63;;;11.40;99.90;;;;;;5053531;28;20400;-75
2024/02/15 02:27:38;;;;;;;41.72;23.73;;;11.40;99.90;;;;;;5069317;28;20408;-75
2024/02/15 02:30:17;;;;;;;36.70;21.95;;;11.40;99.90;;;;;;5044470;28;20094;-76
2024/02/15 02:32:43;;;;;;;43.67;22.17;;;11.40;99.90;;;;;;5071126;28;20536;-75
2024/02/15 02:35:11;;;;;;;42.47;22.65;;;11.40;99.90;;;;;;5062688;28;20047;-76
2024/02/15 02:37:40;;;;;;;35.10;21.05;;;11.40;99.90;;;;;;5061316;28;20457;-75
2024/02/15 02:40:12;;;;;;;36.65;19.80;;;11.40;99.90;;;;;;5057653;28;20043;-75
2024/02/15 02:42:50;;;;;;;30.80;19.45;;;11.40;99.90;;;;;;5067260;28;20124;-75
2024/02/15 02:45:15;;;;;;;31.63;19.45;;;11.40;99.90;;;;;;5065715;28;20122;-75
2024/02/15 02:47:41;;;;;;;34.60;19.70;;;11.40;99.90;;;;;;5043551;28;20144;-75
2024/02/15 02:50:08;;;;;;;44.22;19.92;;;11.40;99.90;;;;;;5054897;28;20055;-76
2024/02/15 02:52:34;;;;;;;34.72;19.48;;;11.40;99.90;;;;;;5041433;28;20040;-75
2024/02/15 02:54:59;;;;;;;32.65;18.67;;;11.40;99.90;;;;;;5051955;28;20098;-76
2024/02/15 02:57:25;;;;;;;29.38;18.00;;;11.40;99.90;;;;;;5060693;28;20047;-75
2024/02/15 02:59:51;;;;;;;37.38;19.25;;;11.50;99.90;;;;;;5048870;28;20036;-76
2024/02/15 03:02:17;;;;;;;39.72;19.02;;;11.50;99.90;;;;;;5065899;28;20079;-75
2024/02/15 03:04:43;;;;;;;42.75;21.42;;;11.40;99.90;;;;;;5029564;28;20130;-75
2024/02/15 03:07:09;;;;;;;36.13;20.88;;;11.40;99.90;;;;;;5050397;28;20131;-75
2024/02/15 03:09:37;;;;;;;46.50;21.98;;;11.50;99.90;;;;;;5039856;28;20056;-76
2024/02/15 03:12:03;;;;;;;54.10;23.38;;;11.40;99.90;;;;;;5066992;28;20492;-75
2024/02/15 03:14:30;;;;;;;47.97;23.38;;;11.40;99.90;;;;;;5038620;28;20308;-76
2024/02/15 03:16:55;;;;;;;39.38;22.92;;;11.40;99.90;;;;;;5046766;28;20040;-76
2024/02/15 03:19:22;;;;;;;39.67;22.95;;;11.40;99.90;;;;;;5067671;28;20126;-75
2024/02/15 03:21:48;;;;;;;44.00;23.48;;;11.40;99.90;;;;;;5034755;28;20036;-76
2024/02/15 03:24:14;;;;;;;45.65;24.80;;;11.40;99.90;;;;;;5040091;28;20043;-75
2024/02/15 03:26:42;;;;;;;39.20;23.48;;;11.40;99.90;;;;;;5058688;28;20050;-76
2024/02/15 03:29:08;;;;;;;45.20;25.92;;;11.40;99.90;;;;;;5052928;28;20048;-76
2024/02/15 03:31:36;;;;;;;44.35;24.80;;;11.40;99.90;;;;;;5051745;28;20047;-75
2024/02/15 03:34:05;;;;;;;47.72;25.75;;;11.40;99.90;;;;;;5034429;28;20182;-75
2024/02/15 03:36:34;;;;;;;47.70;27.55;;;11.40;99.90;;;;;;5056916;28;20044;-76
2024/02/15 03:39:00;;;;;;;45.08;26.25;;;11.40;99.90;;;;;;5061945;28;20047;-75
2024/02/15 03:41:32;;;;;;;42.05;26.33;;;11.40;99.90;;;;;;5043846;28;20032;-75
2024/02/15 03:43:59;;;;;;;61.80;28.88;;;11.40;99.90;;;;;;5035484;28;20408;-75
2024/02/15 03:46:26;;;;;;;45.53;26.65;;;11.40;99.90;;;;;;5060206;28;20040;-75
2024/02/15 03:48:55;;;;;;;42.80;26.98;;;11.40;99.90;;;;;;5037320;28;20489;-75
2024/02/15 03:51:24;;;;;;;52.60;28.17;;;11.40;99.90;;;;;;5043657;28;20040;-75
2024/02/15 03:53:52;;;;;;;53.42;29.80;;;11.40;99.90;;;;;;5047475;28;20044;-75
2024/02/15 03:56:21;;;;;;;49.63;28.65;;;11.50;99.90;;;;;;5043728;28;20075;-75
2024/02/15 03:58:46;;;;;;;45.72;27.85;;;11.40;99.90;;;;;;5060928;28;20181;-75
2024/02/15 04:01:15;;;;;;;46.65;28.48;;;11.40;99.90;;;;;;5035323;28;20510;-75
2024/02/15 04:03:41;;;;;;;41.55;25.65;;;11.50;99.90;;;;;;5034108;28;20415;-75
2024/02/15 04:06:06;;;;;;;42.97;27.40;;;11.50;99.90;;;;;;5038326;28;20045;-75
2024/02/15 04:08:33;;;;;;;46.25;27.98;;;11.50;99.90;;;;;;5052479;28;20040;-75
2024/02/15 04:10:59;;;;;;;42.80;28.90;;;11.50;99.90;;;;;;5038986;28;20097;-75
2024/02/15 04:13:25;;;;;;;41.88;26.70;;;11.50;99.90;;;;;;5054525;28;20124;-75
2024/02/15 04:15:52;;;;;;;46.03;28.38;;;11.50;99.90;;;;;;5061358;28;20541;-75
2024/02/15 04:18:19;;;;;;;46.42;28.98;;;11.50;99.90;;;;;;5058116;28;20053;-75
2024/02/15 04:20:46;;;;;;;46.22;29.92;;;11.50;99.90;;;;;;5048254;28;20062;-75
2024/02/15 04:23:12;;;;;;;45.58;28.88;;;11.60;99.90;;;;;;5051772;28;20044;-75
2024/02/15 04:25:43;;;;;;;47.58;30.33;;;11.60;99.90;;;;;;5050697;28;20492;-75
2024/02/15 04:28:09;;;;;;;52.63;30.80;;;11.60;99.90;;;;;;5066294;28;20056;-75
2024/02/15 04:30:38;;;;;;;44.50;29.10;;;11.60;99.90;;;;;;5046334;28;20496;-75
2024/02/15 04:33:05;;;;;;;51.50;30.15;;;11.60;99.90;;;;;;5034704;28;20071;-75
2024/02/15 04:35:31;;;;;;;41.83;27.75;;;11.60;99.90;;;;;;5038697;28;20052;-75
2024/02/15 04:37:57;;;;;;;44.58;29.42;;;11.60;99.90;;;;;;5071195;28;20054;-75
2024/02/15 04:40:26;;;;;;;48.58;30.48;;;11.60;99.90;;;;;;5045650;28;20508;-75
2024/02/15 04:42:52;;;;;;;47.70;30.08;;;11.60;99.90;;;;;;5061539;28;20312;-75
2024/02/15 04:45:18;;;;;;;47.40;29.63;;;11.70;99.90;;;;;;5054884;28;20405;-76
2024/02/15 04:47:49;;;;;;;61.08;34.33;;;11.60;99.90;;;;;;5042537;28;20493;-76
2024/02/15 04:50:18;;;;;;;54.72;33.53;;;11.70;99.90;;;;;;5060993;28;20055;-76
2024/02/15 04:52:45;;;;;;;55.90;34.40;;;11.70;99.90;;;;;;5038383;28;20040;-75
2024/02/15 04:55:12;;;;;;;52.45;33.50;;;11.70;99.90;;;;;;5046416;28;20056;-76
2024/02/15 04:57:40;;;;;;;47.90;32.08;;;11.70;99.90;;;;;;5038832;28;20040;-75
2024/02/15 05:00:10;;;;;;;47.40;33.17;;;11.70;99.90;;;;;;5063775;28;20088;-75
2024/02/15 05:02:40;;;;;;;;;;;11.70;99.90;;;;;;5053490;28;20504;-75
2024/02/15 05:05:07;;;;;;;62.03;34.65;;;11.70;99.90;;;;;;5040365;28;20390;-75
2024/02/15 05:07:37;;;;;;;51.83;32.85;;;11.60;99.90;;;;;;5061110;28;20064;-75
2024/02/15 05:10:06;;;;;;;50.40;36.13;;;11.70;99.90;;;;;;5039959;28;20082;-76
2024/02/15 05:12:33;;;;;;;53.17;35.65;;;11.70;99.90;;;;;;5041548;28;20397;-76
2024/02/15 05:15:09;;;;;;;58.22;37.88;;;11.70;99.90;;;;;;5053520;28;20449;-75
2024/02/15 05:17:40;;;;;;;51.60;36.70;;;11.70;99.90;;;;;;5058433;28;20432;-76
2024/02/15 05:20:13;;;;;;;48.33;35.35;;;11.70;99.90;;;;;;5050950;28;20134;-76
2024/02/15 05:22:40;;;;;;;61.17;39.60;;;11.70;99.90;;;;;;5037515;28;20036;-75
2024/02/15 05:25:07;;;;;;;55.05;38.28;;;11.70;99.90;;;;;;5050804;28;20052;-75
2024/02/15 05:27:34;;;;;;;50.92;37.47;;;11.70;99.90;;;;;;5038121;28;20514;-75
2024/02/15 05:29:59;;;;;;;49.03;37.75;;;11.70;99.90;;;;;;5046458;28;20131;-75
2024/02/15 05:32:26;;;;;;;55.10;39.13;;;11.70;99.90;;;;;;5048535;28;20115;-76
2024/02/15 05:34:54;;;;;;;54.17;37.95;;;11.70;99.90;;;;;;5049127;28;20050;-76
2024/02/15 05:37:20;;;;;;;55.05;39.05;;;11.70;99.90;;;;;;5060074;28;20434;-76
2024/02/15 05:39:46;;;;;;;63.35;42.03;;;11.70;99.90;;;;;;5058988;28;20093;-75
2024/02/15 05:42:12;;;;;;;71.40;43.88;;;11.70;99.90;;;;;;5068502;28;20400;-75
2024/02/15 05:44:38;;;;;;;65.22;42.67;;;11.70;99.90;;;;;;5061099;28;20036;-75
2024/02/15 05:47:04;;;;;;;58.30;42.17;;;11.70;99.90;;;;;;5050435;28;20078;-76
2024/02/15 05:49:29;;;;;;;63.75;42.53;;;11.70;99.90;;;;;;5062890;28;20105;-75
2024/02/15 05:51:56;;;;;;;57.55;41.05;;;11.70;99.90;;;;;;5065420;28;20040;-75
2024/02/15 05:54:25;;;;;;;60.75;41.03;;;11.70;99.90;;;;;;5069076;28;20474;-75
2024/02/15 05:56:53;;;;;;;63.67;43.42;;;11.70;99.90;;;;;;5047862;28;20499;-76
2024/02/15 05:59:22;;;;;;;57.20;40.00;;;11.70;99.90;;;;;;5073649;28;20056;-75
2024/02/15 06:01:48;;;;;;;56.80;40.65;;;11.70;99.90;;;;;;5068599;28;20117;-76
2024/02/15 06:04:15;;;;;;;56.67;41.40;;;11.80;99.90;;;;;;5054002;28;20511;-75
2024/02/15 06:06:41;;;;;;;54.35;39.42;;;11.70;99.90;;;;;;5045299;28;20036;-74
2024/02/15 06:09:08;;;;;;;52.47;37.72;;;11.80;99.90;;;;;;5068093;28;20059;-74
2024/02/15 06:11:34;;;;;;;63.22;39.70;;;11.70;99.90;;;;;;5052316;28;20039;-74
2024/02/15 06:14:00;;;;;;;51.03;38.15;;;11.80;99.90;;;;;;5066691;28;20055;-74
2024/02/15 06:16:26;;;;;;;51.03;38.13;;;11.80;99.90;;;;;;5044332;28;20066;-74
2024/02/15 06:18:52;;;;;;;46.70;36.70;;;11.80;99.90;;;;;;5053904;28;20451;-74
2024/02/15 06:21:18;;;;;;;45.83;37.17;;;11.80;99.90;;;;;;5055533;28;20503;-73
2024/02/15 06:23:45;;;;;;;45.85;36.83;;;11.80;99.90;;;;;;5058838;28;20036;-74
2024/02/15 06:26:11;;;;;;;47.85;36.90;;;11.80;99.90;;;;;;5054830;28;20040;-73
2024/02/15 06:39:40;;;;;;;46.33;35.90;;;11.80;99.90;;;;;;5065801;28;20052;-76
2024/02/15 06:42:07;;;;;;;43.67;31.92;;;11.80;99.90;;;;;;5064464;28;20173;-75
2024/02/15 06:44:33;;;;;;;46.20;33.38;;;11.80;99.90;;;;;;5050690;28;20043;-76
2024/02/15 06:46:59;;;;;;;47.90;34.75;;;11.80;99.90;;;;;;5051572;28;20443;-76
2024/02/15 06:49:25;;;;;;;45.78;33.65;;;11.80;99.90;;;;;;5049350;28;20059;-76
2024/02/15 06:51:51;;;;;;;46.13;33.13;;;11.80;99.90;;;;;;5049920;28;20445;-76
2024/02/15 06:54:18;;;;;;;40.20;31.00;;;11.80;99.90;;;;;;5054994;28;20043;-76
2024/02/15 06:56:46;;;;;;;46.38;32.75;;;11.80;99.90;;;;;;5063729;28;20043;-76
2024/02/15 06:59:16;;;;;;;39.35;31.48;;;11.80;99.90;;;;;;5056489;28;20085;-76
2024/02/15 07:01:42;;;;;;;43.45;31.60;;;11.80;99.90;;;;;;5046042;28;20201;-77
2024/02/15 07:04:10;;;;;;;39.53;28.92;;;11.80;99.90;;;;;;5067052;28;20055;-76
2024/02/15 07:06:37;;;;;;;49.60;32.47;;;11.80;99.90;;;;;;5058516;28;20497;-77
2024/02/15 07:09:06;;;;;;;44.60;32.13;;;11.80;99.90;;;;;;5050866;28;20032;-76
2024/02/15 07:11:34;;;;;;;46.73;33.07;;;11.80;99.90;;;;;;5060141;28;20039;-76
2024/02/15 07:14:09;;;;;;;35.25;28.63;;;11.80;99.90;;;;;;5051934;28;20345;-77
2024/02/15 07:16:34;;;;;;;40.30;29.98;;;11.80;99.90;;;;;;5043243;28;20516;-77
2024/02/15 07:19:03;;;;;;;41.75;29.20;;;11.80;99.90;;;;;;5068662;28;20032;-76
2024/02/15 07:21:29;;;;;;;37.33;28.55;;;11.70;99.90;;;;;;5050524;28;20610;-76
2024/02/15 07:23:55;;;;;;;41.88;29.70;;;11.80;99.90;;;;;;5065363;28;20044;-76
2024/02/15 07:26:24;;;;;;;41.10;29.50;;;11.80;99.90;;;;;;5050209;28;20048;-76
2024/02/15 07:28:54;;;;;;;38.08;28.05;;;11.80;99.90;;;;;;5051877;28;20040;-77
2024/02/15 07:31:23;;;;;;;40.67;30.50;;;11.80;99.90;;;;;;5046512;28;20388;-76
2024/02/15 07:33:51;;;;;;;41.60;28.98;;;11.80;99.90;;;;;;5049716;28;20143;-77
2024/02/15 07:36:23;;;;;;;36.28;28.45;;;11.80;99.90;;;;;;5051861;28;20541;-77
2024/02/15 07:38:53;;;;;;;43.17;29.52;;;11.80;99.90;;;;;;5069909;28;20039;-77
2024/02/15 07:41:22;;;;;;;40.63;29.25;;;11.80;99.90;;;;;;5045388;28;20059;-76
2024/02/15 07:43:55;;;;;;;35.92;28.52;;;11.80;99.90;;;;;;5050040;28;20044;-76
2024/02/15 07:46:21;;;;;;;33.92;26.98;;;11.80;99.90;;;;;;5049058;28;20043;-77
2024/02/15 07:48:48;;;;;;;36.38;28.15;;;11.80;99.90;;;;;;5047108;28;20048;-76
2024/02/15 07:51:20;;;;;;;36.83;28.60;;;11.80;99.90;;;;;;5047925;28;20032;-77
2024/02/15 07:53:46;;;;;;;36.67;28.85;;;11.80;99.90;;;;;;5064924;28;20079;-76
2024/02/15 07:56:13;;;;;;;35.53;27.27;;;11.80;99.90;;;;;;5044219;28;20040;-76
2024/02/15 07:58:47;;;;;;;35.13;28.10;;;11.80;99.90;;;;;;5060061;28;20416;-76
2024/02/15 08:01:16;;;;;;;34.45;27.33;;;11.90;99.90;;;;;;5074004;28;20047;-76
2024/02/15 08:03:46;;;;;;;36.45;27.65;;;11.90;99.90;;;;;;5053658;28;20127;-76
2024/02/15 08:06:12;;;;;;;34.20;25.15;;;11.90;99.90;;;;;;5043657;28;20044;-76
2024/02/15 08:08:45;;;;;;;29.65;26.17;;;11.90;99.90;;;;;;5054433;28;20083;-77
2024/02/15 08:11:15;;;;;;;31.63;25.30;;;11.90;99.90;;;;;;5052093;28;20044;-76
2024/02/15 08:13:53;;;;;;;32.63;26.43;;;11.80;99.90;;;;;;5066522;28;20036;-76
2024/02/15 08:16:24;;;;;;;27.30;24.33;;;11.90;99.90;;;;;;5058801;28;20089;-76
2024/02/15 08:18:54;;;;;;;29.92;24.83;;;11.90;99.90;;;;;;5073326;28;20500;-76
2024/02/15 08:21:35;;;;;;;31.73;24.38;;;11.90;99.90;;;;;;5055196;28;20565;-76
2024/02/15 08:24:05;;;;;;;27.83;23.08;;;11.90;99.90;;;;;;5056541;28;20044;-76
2024/02/15 08:26:33;;;;;;;30.42;24.30;;;11.90;99.90;;;;;;5048864;28;20044;-76
2024/02/15 08:28:58;;;;;;;25.70;22.90;;;11.90;99.90;;;;;;5069348;28;20043;-76
2024/02/15 08:31:24;;;;;;;29.75;23.55;;;11.90;99.90;;;;;;5048273;28;20411;-75
2024/02/15 08:33:50;;;;;;;31.17;23.88;;;11.90;99.90;;;;;;5070396;28;20092;-77
2024/02/15 08:36:16;;;;;;;31.75;23.48;;;11.90;99.90;;;;;;5050805;28;20054;-77
2024/02/15 08:38:42;;;;;;;30.45;22.90;;;11.90;99.90;;;;;;5071984;28;20067;-77
2024/02/15 08:41:08;;;;;;;31.20;24.20;;;11.90;99.90;;;;;;5052188;28;20074;-76
2024/02/15 08:43:39;;;;;;;29.08;22.42;;;11.90;99.90;;;;;;5054180;28;20481;-76
2024/02/15 08:46:06;;;;;;;29.60;24.63;;;11.90;99.90;;;;;;5068165;28;20055;-76
2024/02/15 08:48:35;;;;;;;29.25;24.00;;;11.90;99.90;;;;;;5058708;28;20052;-76
2024/02/15 08:51:05;;;;;;;30.13;26.38;;;11.90;99.90;;;;;;5047149;28;20584;-77
2024/02/15 08:53:36;;;;;;;;;;;11.90;99.90;;;;;;5075199;28;20043;-77
2024/02/15 08:56:03;;;;;;;26.13;23.48;;;11.90;99.90;;;;;;5043153;28;20360;-76
2024/02/15 08:58:30;;;;;;;27.63;24.35;;;11.90;99.90;;;;;;5072704;28;20102;-77
2024/02/15 09:00:57;;;;;;;32.97;26.45;;;11.90;99.90;;;;;;5050163;28;20037;-76
2024/02/15 09:03:23;;;;;;;27.83;24.83;;;11.90;99.90;;;;;;5061453;28;20106;-77
2024/02/15 09:05:49;;;;;;;29.35;24.33;;;12.00;99.90;;;;;;5050591;28;20032;-76
2024/02/15 09:08:15;;;;;;;30.77;26.60;;;12.00;99.90;;;;;;5067151;28;20040;-77
2024/02/15 09:10:42;;;;;;;31.00;24.95;;;12.00;99.90;;;;;;5051306;28;20048;-77
2024/02/15 09:13:08;;;;;;;27.65;23.67;;;12.00;99.90;;;;;;5052048;28;20058;-77
2024/02/15 09:15:35;;;;;;;24.60;21.80;;;12.00;99.90;;;;;;5067842;28;20047;-77
2024/02/15 09:18:01;;;;;;;30.05;24.30;;;12.00;99.90;;;;;;5051679;28;20036;-77
2024/02/15 09:20:33;;;;;;;25.95;23.17;;;12.00;99.90;;;;;;5064262;28;20307;-76
2024/02/15 09:23:04;;;;;;;25.95;22.65;;;12.00;99.90;;;;;;5063961;28;20040;-77
2024/02/15 09:25:31;;;;;;;25.23;22.52;;;12.00;99.90;;;;;;5054179;28;20043;-76
2024/02/15 09:28:00;;;;;;;29.63;23.10;;;12.00;99.90;;;;;;5053927;28;20088;-76
2024/02/15 09:30:27;;;;;;;24.58;22.00;;;12.00;99.90;;;;;;5050427;28;20048;-76
2024/02/15 09:32:53;;;;;;;22.98;20.05;;;12.00;99.90;;;;;;5066160;28;20080;-76
2024/02/15 09:35:20;;;;;;;22.90;20.08;;;12.00;99.90;;;;;;5075807;28;20082;-76
2024/02/15 09:37:52;;;;;;;22.67;19.80;;;12.00;99.90;;;;;;5067888;28;20043;-76
2024/02/15 09:40:19;;;;;;;21.65;19.30;;;12.10;99.90;;;;;;5071259;28;20447;-76
2024/02/15 09:42:45;;;;;;;21.65;19.35;;;12.10;99.90;;;;;;5050361;28;20098;-76
2024/02/15 09:45:12;;;;;;;25.55;19.90;;;12.00;99.90;;;;;;5052705;28;20040;-77
2024/02/15 09:47:42;;;;;;;25.63;20.50;;;12.10;99.90;;;;;;5051141;28;20068;-76
2024/02/15 09:50:15;;;;;;;24.45;21.20;;;12.10;99.90;;;;;;5050244;28;20131;-77
2024/02/15 09:52:52;;;;;;;26.42;22.05;;;12.10;99.90;;;;;;5057984;28;20071;-76
2024/02/15 09:55:18;;;;;;;28.48;20.98;;;12.10;99.90;;;;;;5052142;28;20143;-77
2024/02/15 09:57:48;;;;;;;36.33;21.38;;;12.10;99.90;;;;;;5057532;28;20043;-76
2024/02/15 10:00:15;;;;;;;21.70;19.40;;;12.20;99.90;;;;;;5050186;28;20044;-77
2024/02/15 10:02:44;;;;;;;22.02;19.40;;;12.20;99.90;;;;;;5066758;28;20048;-77
2024/02/15 10:05:13;;;;;;;21.00;18.70;;;12.20;99.90;;;;;;5047643;28;20408;-77
2024/02/15 10:07:40;;;;;;;21.55;19.38;;;12.20;99.90;;;;;;5051003;28;20055;-76
2024/02/15 10:10:22;;;;;;;21.33;17.90;;;12.20;99.90;;;;;;5068393;28;20369;-76
2024/02/15 10:12:51;;;;;;;21.83;19.33;;;12.20;99.90;;;;;;5050969;28;20047;-76
2024/02/15 10:15:34;;;;;;;21.83;17.55;;;12.20;99.90;;;;;;5060042;28;20040;-77
2024/02/15 10:18:05;;;;;;;20.98;17.20;;;12.20;99.90;;;;;;5048142;28;20078;-77
2024/02/15 10:20:31;;;;;;;20.00;17.95;;;12.30;99.90;;;;;;5074990;28;20500;-77
2024/02/15 10:23:00;;;;;;;17.95;16.13;;;12.30;99.90;;;;;;5054389;28;20063;-77
2024/02/15 10:25:29;;;;;;;20.02;17.92;;;12.30;99.90;;;;;;5065717;28;20048;-76
2024/02/15 10:28:09;;;;;;;19.38;16.02;;;12.30;99.90;;;;;;5051532;28;20459;-77
2024/02/15 10:30:39;;;;;;;17.27;15.48;;;12.30;99.90;;;;;;5068489;28;20044;-77
2024/02/15 10:33:07;;;;;;;;;;;12.40;99.90;;;;;;5049431;28;20052;-77
2024/02/15 10:35:36;;;;;;;16.77;15.07;;;12.40;99.90;;;;;;5045198;28;19928;-77
2024/02/15 10:38:13;;;;;;;16.08;14.32;;;12.40;99.90;;;;;;5045735;28;20041;-77
2024/02/15 10:40:43;;;;;;;15.00;13.50;;;12.40;99.90;;;;;;5051229;28;20051;-77
2024/02/15 10:43:13;;;;;;;16.40;14.73;;;12.40;99.90;;;;;;5051422;28;20499;-77
2024/02/15 10:45:40;;;;;;;16.80;15.10;;;12.50;99.90;;;;;;5049575;28;20055;-77
2024/02/15 10:48:09;;;;;;;13.70;12.30;;;12.50;99.90;;;;;;5063216;28;20097;-78
2024/02/15 10:50:36;;;;;;;15.35;13.75;;;12.50;99.90;;;;;;5049545;28;20048;-77
2024/02/15 10:53:26;;;;;;;14.75;13.40;;;12.50;99.90;;;;;;5050421;28;20496;-78
2024/02/15 10:55:57;;;;;;;13.40;12.20;;;12.50;99.90;;;;;;5050504;28;20543;-77
2024/02/15 10:58:28;;;;;;;13.60;12.40;;;12.60;99.90;;;;;;5066572;28;20271;-77
2024/02/15 11:00:54;;;;;;;11.20;10.10;;;12.60;99.90;;;;;;5066540;28;20110;-77
2024/02/15 11:03:28;;;;;;;14.00;11.50;;;12.70;99.90;;;;;;5063403;28;20528;-78
2024/02/15 11:05:56;;;;;;;12.07;10.88;;;12.60;99.90;;;;;;5063846;28;20051;-77
2024/02/15 11:08:22;;;;;;;12.23;10.98;;;12.70;99.90;;;;;;5067445;28;20044;-78
2024/02/15 11:10:48;;;;;;;11.05;9.95;;;12.70;99.90;;;;;;5057658;28;20043;-78
2024/02/15 11:13:15;;;;;;;12.80;11.48;;;12.80;99.90;;;;;;5051961;28;20352;-77
2024/02/15 11:15:53;;;;;;;12.27;10.30;;;12.80;99.90;;;;;;5048350;28;20444;-77
2024/02/15 11:18:55;;;;;;;11.25;10.10;;;12.80;99.90;;;;;;5063957;28;20071;-77
2024/02/15 11:21:58;;;;;;;11.18;10.07;;;12.80;99.90;;;;;;5005120;28;20548;-77
2024/02/15 11:24:28;;;;;;;8.32;7.53;;;12.90;99.90;;;;;;5064038;28;20044;-76
2024/02/15 11:27:04;;;;;;;10.05;8.70;;;12.90;99.90;;;;;;5050849;28;20067;-77
2024/02/15 11:29:54;;;;;;;9.05;8.15;;;12.80;99.90;;;;;;5052506;28;20048;-78
2024/02/15 11:32:49;;;;;;;8.90;8.05;;;12.90;99.90;;;;;;5066755;28;20043;-78
2024/02/15 11:35:20;;;;;;;8.90;8.00;;;12.90;99.90;;;;;;5056455;28;20062;-77
2024/02/15 11:38:05;;;;;;;8.82;8.02;;;12.90;99.90;;;;;;5048083;28;20044;-78
2024/02/15 11:40:43;;;;;;;8.02;7.25;;;12.90;99.90;;;;;;5067731;28;20101;-77
2024/02/15 11:43:10;;;;;;;8.45;7.65;;;12.80;99.90;;;;;;5064072;28;20102;-77
2024/02/15 11:45:43;;;;;;;8.85;7.95;;;12.80;99.90;;;;;;5068032;28;20048;-77
2024/02/15 11:48:11;;;;;;;9.45;8.55;;;12.80;99.90;;;;;;5055146;28;20055;-77
2024/02/15 11:50:39;;;;;;;9.82;8.77;;;12.80;99.90;;;;;;5072886;28;20047;-77
2024/02/15 11:53:11;;;;;;;9.77;8.88;;;12.70;99.90;;;;;;5049313;28;20040;-76
2024/02/15 11:55:38;;;;;;;9.15;8.30;;;12.80;99.90;;;;;;5047877;28;20538;-77
2024/02/15 11:58:16;;;;;;;8.60;7.78;;;12.80;99.90;;;;;;5066459;28;20448;-77
2024/02/15 12:20:10;;;;;;;9.52;8.57;;;12.70;99.90;;;;;;5065397;28;20055;-77
2024/02/15 12:22:49;;;;;;;11.40;10.20;;;12.60;99.90;;;;;;5057118;28;20051;-77
2024/02/15 12:25:16;;;;;;;12.18;9.70;;;12.60;99.90;;;;;;5051376;28;20051;-77
2024/02/15 12:27:46;;;;;;;11.35;10.15;;;12.70;99.90;;;;;;5045413;28;20055;-76
2024/02/15 12:30:21;;;;;;;12.73;10.98;;;12.60;99.90;;;;;;5048958;28;20039;-77
2024/02/15 12:32:51;;;;;;;11.32;10.30;;;12.60;99.90;;;;;;5060623;28;20405;-76
2024/02/15 12:35:19;;;;;;;11.80;10.60;;;12.60;99.90;;;;;;5062557;28;20052;-77
2024/02/15 12:38:08;;;;;;;13.32;12.00;;;12.60;99.90;;;;;;5043453;28;20052;-76
2024/02/15 12:40:40;;;;;;;13.05;10.93;;;12.60;99.90;;;;;;5063428;28;20052;-76
2024/02/15 12:43:08;;;;;;;12.57;11.38;;;12.60;99.90;;;;;;5043952;28;20040;-76
2024/02/15 12:45:44;;;;;;;15.02;12.82;;;12.60;99.90;;;;;;5050803;28;20581;-77
2024/02/15 12:48:10;;;;;;;12.90;11.57;;;12.60;99.90;;;;;;5063180;28;20046;-77
2024/02/15 12:50:36;;;;;;;14.55;12.88;;;12.60;99.90;;;;;;5047596;28;20526;-77
2024/02/15 12:53:02;;;;;;;14.50;13.02;;;12.60;99.90;;;;;;5066129;28;20036;-76
2024/02/15 12:55:36;;;;;;;12.40;11.05;;;12.60;99.90;;;;;;5045171;28;20408;-77
2024/02/15 12:58:14;;;;;;;13.25;11.98;;;12.60;99.90;;;;;;5063118;28;20059;-77
2024/02/15 13:00:40;;;;;;;13.93;12.32;;;12.60;99.90;;;;;;5052241;28;20055;-77
2024/02/15 13:03:09;;;;;;;12.70;11.48;;;12.60;99.90;;;;;;5061686;28;20040;-77
2024/02/15 13:05:38;;;;;;;14.43;11.65;;;12.60;99.90;;;;;;5049552;28;20144;-76